Kimberley, Canada
Current Conditions -  °F | °C
As of 7:00 AM on Thursday 27 Nov 2014 (Local Time) from CYXC Reporting Station
Scattered Clouds Scattered Clouds  
Wind Chill: 32°   Ceiling: Unl
Heat Index: 37°   Visibility: 15mi
Dew Point: 36°   Wind: 7mph
Humidity: 93%   Direction: 140°SE
Pressure: 29.73"   Gusts: NA
Location:  49.68°N, 115.98°W
Report Text: CYXC 271400Z 14006KT 110V250 15SM FEW010 FEW060 SCT100 SCT180 03/02 A2973 RMK SF1SC2AC1AC1 SF TR SLP095
Loading
Personal Weather Stations






























Interactive Weather Map New forecast layout! Learn more

10-Day Weather Forecast

Advertisements
Track Severe Weather on mobile